sensor_id;sensor_type;location;lat;lon;timestamp;P1;durP1;ratioP1;P2;durP2;ratioP2
18568;SDS011;14780;48.316;-1.050;2024-02-04T00:01:25;4.22;;;2.80;;
18568;SDS011;14780;48.316;-1.050;2024-02-04T00:04:10;5.68;;;2.92;;
18568;SDS011;14780;48.316;-1.050;2024-02-04T00:06:55;4.53;;;2.90;;
18568;SDS011;14780;48.316;-1.050;2024-02-04T00:09:40;4.53;;;2.78;;
18568;SDS011;14780;48.316;-1.050;2024-02-04T00:12:25;4.60;;;3.00;;
18568;SDS011;14780;48.316;-1.050;2024-02-04T00:15:10;4.97;;;2.60;;
18568;SDS011;14780;48.316;-1.050;2024-02-04T00:17:55;4.47;;;2.97;;
18568;SDS011;14780;48.316;-1.050;2024-02-04T00:20:40;4.63;;;2.85;;
18568;SDS011;14780;48.316;-1.050;2024-02-04T00:23:24;4.25;;;2.80;;
18568;SDS011;14780;48.316;-1.050;2024-02-04T00:26:09;4.22;;;2.60;;
18568;SDS011;14780;48.316;-1.050;2024-02-04T00:28:53;3.70;;;2.70;;
18568;SDS011;14780;48.316;-1.050;2024-02-04T00:31:38;5.25;;;2.60;;
18568;SDS011;14780;48.316;-1.050;2024-02-04T00:34:23;4.53;;;2.83;;
18568;SDS011;14780;48.316;-1.050;2024-02-04T00:37:07;3.88;;;2.78;;
18568;SDS011;14780;48.316;-1.050;2024-02-04T00:39:52;3.57;;;2.60;;
18568;SDS011;14780;48.316;-1.050;2024-02-04T00:42:36;4.10;;;2.70;;
18568;SDS011;14780;48.316;-1.050;2024-02-04T00:45:21;4.32;;;2.90;;
18568;SDS011;14780;48.316;-1.050;2024-02-04T00:48:06;5.05;;;2.85;;
18568;SDS011;14780;48.316;-1.050;2024-02-04T00:50:51;3.47;;;2.60;;
18568;SDS011;14780;48.316;-1.050;2024-02-04T00:53:35;4.57;;;2.80;;
18568;SDS011;14780;48.316;-1.050;2024-02-04T00:56:20;6.55;;;2.90;;
18568;SDS011;14780;48.316;-1.050;2024-02-04T00:59:05;5.28;;;2.75;;
18568;SDS011;14780;48.316;-1.050;2024-02-04T01:01:50;4.47;;;2.67;;
18568;SDS011;14780;48.316;-1.050;2024-02-04T01:04:34;4.63;;;2.80;;
18568;SDS011;14780;48.316;-1.050;2024-02-04T01:07:19;5.55;;;2.90;;
18568;SDS011;14780;48.316;-1.050;2024-02-04T01:10:04;4.73;;;2.87;;
18568;SDS011;14780;48.316;-1.050;2024-02-04T01:12:49;4.18;;;2.70;;
18568;SDS011;14780;48.316;-1.050;2024-02-04T01:15:34;4.68;;;2.90;;
18568;SDS011;14780;48.316;-1.050;2024-02-04T01:18:18;3.90;;;2.85;;
18568;SDS011;14780;48.316;-1.050;2024-02-04T01:21:03;3.88;;;2.78;;
18568;SDS011;14780;48.316;-1.050;2024-02-04T01:23:48;4.33;;;2.77;;
18568;SDS011;14780;48.316;-1.050;2024-02-04T01:26:33;3.70;;;2.60;;
18568;SDS011;14780;48.316;-1.050;2024-02-04T01:29:18;4.50;;;3.03;;
18568;SDS011;14780;48.316;-1.050;2024-02-04T01:32:02;4.07;;;2.90;;
18568;SDS011;14780;48.316;-1.050;2024-02-04T01:34:47;5.20;;;2.70;;
18568;SDS011;14780;48.316;-1.050;2024-02-04T01:37:32;4.43;;;2.90;;
18568;SDS011;14780;48.316;-1.050;2024-02-04T01:40:16;4.70;;;2.90;;
18568;SDS011;14780;48.316;-1.050;2024-02-04T01:43:02;4.47;;;2.80;;
18568;SDS011;14780;48.316;-1.050;2024-02-04T01:45:47;4.32;;;2.90;;
18568;SDS011;14780;48.316;-1.050;2024-02-04T01:48:33;3.92;;;2.53;;
18568;SDS011;14780;48.316;-1.050;2024-02-04T01:51:19;3.97;;;2.78;;
18568;SDS011;14780;48.316;-1.050;2024-02-04T01:54:05;4.20;;;2.70;;
18568;SDS011;14780;48.316;-1.050;2024-02-04T01:56:51;3.85;;;2.70;;
18568;SDS011;14780;48.316;-1.050;2024-02-04T01:59:38;4.18;;;2.85;;
18568;SDS011;14780;48.316;-1.050;2024-02-04T02:02:24;3.63;;;2.60;;
18568;SDS011;14780;48.316;-1.050;2024-02-04T02:05:10;4.70;;;2.70;;
18568;SDS011;14780;48.316;-1.050;2024-02-04T02:07:54;4.05;;;2.80;;
18568;SDS011;14780;48.316;-1.050;2024-02-04T02:10:39;4.03;;;2.70;;
18568;SDS011;14780;48.316;-1.050;2024-02-04T02:13:30;5.03;;;2.72;;
18568;SDS011;14780;48.316;-1.050;2024-02-04T02:16:18;4.35;;;3.00;;
18568;SDS011;14780;48.316;-1.050;2024-02-04T02:25:21;4.00;;;2.77;;
18568;SDS011;14780;48.316;-1.050;2024-02-04T02:28:07;4.80;;;2.80;;
18568;SDS011;14780;48.316;-1.050;2024-02-04T02:30:52;4.68;;;2.88;;
18568;SDS011;14780;48.316;-1.050;2024-02-04T02:33:37;4.57;;;2.92;;
18568;SDS011;14780;48.316;-1.050;2024-02-04T02:36:21;4.38;;;2.70;;
18568;SDS011;14780;48.316;-1.050;2024-02-04T02:39:08;3.90;;;2.80;;
18568;SDS011;14780;48.316;-1.050;2024-02-04T02:42:01;4.50;;;2.95;;
18568;SDS011;14780;48.316;-1.050;2024-02-04T02:44:47;3.40;;;2.53;;
18568;SDS011;14780;48.316;-1.050;2024-02-04T02:47:33;5.05;;;2.70;;
18568;SDS011;14780;48.316;-1.050;2024-02-04T02:50:19;4.03;;;2.90;;
18568;SDS011;14780;48.316;-1.050;2024-02-04T02:53:04;4.77;;;3.03;;
18568;SDS011;14780;48.316;-1.050;2024-02-04T02:55:49;4.13;;;2.80;;
18568;SDS011;14780;48.316;-1.050;2024-02-04T02:58:34;4.43;;;2.75;;
18568;SDS011;14780;48.316;-1.050;2024-02-04T03:01:18;3.65;;;2.63;;
18568;SDS011;14780;48.316;-1.050;2024-02-04T03:04:03;5.35;;;3.00;;
18568;SDS011;14780;48.316;-1.050;2024-02-04T03:06:48;5.00;;;3.15;;
18568;SDS011;14780;48.316;-1.050;2024-02-04T03:09:32;3.97;;;2.90;;
18568;SDS011;14780;48.316;-1.050;2024-02-04T03:12:18;4.30;;;2.97;;
18568;SDS011;14780;48.316;-1.050;2024-02-04T03:15:02;4.53;;;2.80;;
18568;SDS011;14780;48.316;-1.050;2024-02-04T03:17:47;3.90;;;2.80;;
18568;SDS011;14780;48.316;-1.050;2024-02-04T03:20:32;3.70;;;2.58;;
18568;SDS011;14780;48.316;-1.050;2024-02-04T03:23:16;6.43;;;2.80;;
18568;SDS011;14780;48.316;-1.050;2024-02-04T03:26:01;4.63;;;2.90;;
18568;SDS011;14780;48.316;-1.050;2024-02-04T03:28:46;4.47;;;2.90;;
18568;SDS011;14780;48.316;-1.050;2024-02-04T03:31:31;4.75;;;2.95;;
18568;SDS011;14780;48.316;-1.050;2024-02-04T03:34:15;4.78;;;2.90;;
18568;SDS011;14780;48.316;-1.050;2024-02-04T03:37:00;4.43;;;3.10;;
18568;SDS011;14780;48.316;-1.050;2024-02-04T03:39:44;4.38;;;2.72;;
18568;SDS011;14780;48.316;-1.050;2024-02-04T03:42:30;4.73;;;3.00;;
18568;SDS011;14780;48.316;-1.050;2024-02-04T03:45:14;5.15;;;3.00;;
18568;SDS011;14780;48.316;-1.050;2024-02-04T03:47:59;3.95;;;2.70;;
18568;SDS011;14780;48.316;-1.050;2024-02-04T03:50:43;4.63;;;2.63;;
18568;SDS011;14780;48.316;-1.050;2024-02-04T03:53:28;5.18;;;2.90;;
18568;SDS011;14780;48.316;-1.050;2024-02-04T03:56:13;4.72;;;2.97;;
18568;SDS011;14780;48.316;-1.050;2024-02-04T03:58:57;3.95;;;2.90;;
18568;SDS011;14780;48.316;-1.050;2024-02-04T04:01:51;5.35;;;2.80;;
18568;SDS011;14780;48.316;-1.050;2024-02-04T04:04:41;4.13;;;2.80;;
18568;SDS011;14780;48.316;-1.050;2024-02-04T04:07:27;4.30;;;2.67;;
18568;SDS011;14780;48.316;-1.050;2024-02-04T04:10:11;4.68;;;2.75;;
18568;SDS011;14780;48.316;-1.050;2024-02-04T04:12:56;4.30;;;2.90;;
18568;SDS011;14780;48.316;-1.050;2024-02-04T04:15:41;3.97;;;2.73;;
18568;SDS011;14780;48.316;-1.050;2024-02-04T04:18:26;4.25;;;2.90;;
18568;SDS011;14780;48.316;-1.050;2024-02-04T04:21:10;5.28;;;2.92;;
18568;SDS011;14780;48.316;-1.050;2024-02-04T04:23:58;3.83;;;2.78;;
18568;SDS011;14780;48.316;-1.050;2024-02-04T04:26:43;4.45;;;2.70;;
18568;SDS011;14780;48.316;-1.050;2024-02-04T04:29:27;5.55;;;2.90;;
18568;SDS011;14780;48.316;-1.050;2024-02-04T04:32:12;4.38;;;2.72;;
18568;SDS011;14780;48.316;-1.050;2024-02-04T04:34:56;5.18;;;2.70;;
18568;SDS011;14780;48.316;-1.050;2024-02-04T04:37:41;4.50;;;3.10;;
18568;SDS011;14780;48.316;-1.050;2024-02-04T04:40:25;4.75;;;2.95;;
18568;SDS011;14780;48.316;-1.050;2024-02-04T04:43:10;6.90;;;2.73;;
18568;SDS011;14780;48.316;-1.050;2024-02-04T04:45:55;6.15;;;2.80;;
18568;SDS011;14780;48.316;-1.050;2024-02-04T04:48:39;3.72;;;2.60;;
18568;SDS011;14780;48.316;-1.050;2024-02-04T04:51:24;4.28;;;2.83;;
18568;SDS011;14780;48.316;-1.050;2024-02-04T04:54:09;4.47;;;2.70;;
18568;SDS011;14780;48.316;-1.050;2024-02-04T04:56:53;5.93;;;3.00;;
18568;SDS011;14780;48.316;-1.050;2024-02-04T04:59:38;4.03;;;2.88;;
18568;SDS011;14780;48.316;-1.050;2024-02-04T05:02:24;4.47;;;2.90;;
18568;SDS011;14780;48.316;-1.050;2024-02-04T05:05:10;4.85;;;2.90;;
18568;SDS011;14780;48.316;-1.050;2024-02-04T05:07:55;4.82;;;2.92;;
18568;SDS011;14780;48.316;-1.050;2024-02-04T05:10:39;4.82;;;2.80;;
18568;SDS011;14780;48.316;-1.050;2024-02-04T05:13:25;9.38;;;2.80;;
18568;SDS011;14780;48.316;-1.050;2024-02-04T05:16:09;4.75;;;2.78;;
18568;SDS011;14780;48.316;-1.050;2024-02-04T05:18:54;4.35;;;2.60;;
18568;SDS011;14780;48.316;-1.050;2024-02-04T05:21:39;3.70;;;2.53;;
18568;SDS011;14780;48.316;-1.050;2024-02-04T05:24:24;5.32;;;2.78;;
18568;SDS011;14780;48.316;-1.050;2024-02-04T05:27:09;4.80;;;2.63;;
18568;SDS011;14780;48.316;-1.050;2024-02-04T05:29:53;4.32;;;2.75;;
18568;SDS011;14780;48.316;-1.050;2024-02-04T05:32:38;5.50;;;2.80;;
18568;SDS011;14780;48.316;-1.050;2024-02-04T05:35:23;3.70;;;2.58;;
18568;SDS011;14780;48.316;-1.050;2024-02-04T05:38:07;7.35;;;2.75;;
18568;SDS011;14780;48.316;-1.050;2024-02-04T05:40:53;4.05;;;2.60;;
18568;SDS011;14780;48.316;-1.050;2024-02-04T05:43:38;4.93;;;2.70;;
18568;SDS011;14780;48.316;-1.050;2024-02-04T05:46:23;4.75;;;2.70;;
18568;SDS011;14780;48.316;-1.050;2024-02-04T05:49:08;5.00;;;2.93;;
18568;SDS011;14780;48.316;-1.050;2024-02-04T05:51:52;4.25;;;2.80;;
18568;SDS011;14780;48.316;-1.050;2024-02-04T05:54:37;4.80;;;2.70;;
18568;SDS011;14780;48.316;-1.050;2024-02-04T05:57:25;4.55;;;2.63;;
18568;SDS011;14780;48.316;-1.050;2024-02-04T06:00:10;5.45;;;2.70;;
18568;SDS011;14780;48.316;-1.050;2024-02-04T06:02:55;4.50;;;2.50;;
18568;SDS011;14780;48.316;-1.050;2024-02-04T06:05:40;4.03;;;2.50;;
18568;SDS011;14780;48.316;-1.050;2024-02-04T06:08:24;4.47;;;2.50;;
18568;SDS011;14780;48.316;-1.050;2024-02-04T06:11:10;3.85;;;2.60;;
18568;SDS011;14780;48.316;-1.050;2024-02-04T06:13:56;3.97;;;2.47;;
18568;SDS011;14780;48.316;-1.050;2024-02-04T06:16:40;3.88;;;2.35;;
18568;SDS011;14780;48.316;-1.050;2024-02-04T06:19:25;5.10;;;2.80;;
18568;SDS011;14780;48.316;-1.050;2024-02-04T06:22:09;4.70;;;2.60;;
18568;SDS011;14780;48.316;-1.050;2024-02-04T06:24:54;4.85;;;2.63;;
18568;SDS011;14780;48.316;-1.050;2024-02-04T06:27:38;7.25;;;2.70;;
18568;SDS011;14780;48.316;-1.050;2024-02-04T06:30:23;3.75;;;2.40;;
18568;SDS011;14780;48.316;-1.050;2024-02-04T06:33:08;6.30;;;2.50;;
18568;SDS011;14780;48.316;-1.050;2024-02-04T06:35:52;4.28;;;2.58;;
18568;SDS011;14780;48.316;-1.050;2024-02-04T06:38:37;3.83;;;2.47;;
18568;SDS011;14780;48.316;-1.050;2024-02-04T06:41:22;4.47;;;2.40;;
18568;SDS011;14780;48.316;-1.050;2024-02-04T06:44:06;4.35;;;2.47;;
18568;SDS011;14780;48.316;-1.050;2024-02-04T06:46:51;4.72;;;2.25;;
18568;SDS011;14780;48.316;-1.050;2024-02-04T06:49:36;4.93;;;2.53;;
18568;SDS011;14780;48.316;-1.050;2024-02-04T06:52:20;7.85;;;2.72;;
18568;SDS011;14780;48.316;-1.050;2024-02-04T06:55:05;4.18;;;2.42;;
18568;SDS011;14780;48.316;-1.050;2024-02-04T06:57:50;3.90;;;2.38;;
18568;SDS011;14780;48.316;-1.050;2024-02-04T07:00:35;4.57;;;2.53;;
18568;SDS011;14780;48.316;-1.050;2024-02-04T07:03:20;3.40;;;2.30;;
18568;SDS011;14780;48.316;-1.050;2024-02-04T07:06:04;5.18;;;2.50;;
18568;SDS011;14780;48.316;-1.050;2024-02-04T07:08:49;4.20;;;2.50;;
18568;SDS011;14780;48.316;-1.050;2024-02-04T07:11:34;4.10;;;2.50;;
18568;SDS011;14780;48.316;-1.050;2024-02-04T07:14:19;4.88;;;2.38;;
18568;SDS011;14780;48.316;-1.050;2024-02-04T07:17:04;3.80;;;2.28;;
18568;SDS011;14780;48.316;-1.050;2024-02-04T07:19:49;5.25;;;2.42;;
18568;SDS011;14780;48.316;-1.050;2024-02-04T07:22:34;4.07;;;2.40;;
18568;SDS011;14780;48.316;-1.050;2024-02-04T07:25:19;5.80;;;2.58;;
18568;SDS011;14780;48.316;-1.050;2024-02-04T07:28:04;4.88;;;2.30;;
18568;SDS011;14780;48.316;-1.050;2024-02-04T07:30:48;5.25;;;2.15;;
18568;SDS011;14780;48.316;-1.050;2024-02-04T07:33:33;3.22;;;2.17;;
18568;SDS011;14780;48.316;-1.050;2024-02-04T07:36:18;3.97;;;2.08;;
18568;SDS011;14780;48.316;-1.050;2024-02-04T07:39:02;3.28;;;2.00;;
18568;SDS011;14780;48.316;-1.050;2024-02-04T07:41:48;3.67;;;2.00;;
18568;SDS011;14780;48.316;-1.050;2024-02-04T07:44:33;5.72;;;2.03;;
18568;SDS011;14780;48.316;-1.050;2024-02-04T07:47:18;3.97;;;2.20;;
18568;SDS011;14780;48.316;-1.050;2024-02-04T07:50:05;4.13;;;2.20;;
18568;SDS011;14780;48.316;-1.050;2024-02-04T07:52:51;3.80;;;2.00;;
18568;SDS011;14780;48.316;-1.050;2024-02-04T07:55:36;4.38;;;2.13;;
18568;SDS011;14780;48.316;-1.050;2024-02-04T07:58:21;5.43;;;2.33;;
18568;SDS011;14780;48.316;-1.050;2024-02-04T08:01:05;3.90;;;2.15;;
18568;SDS011;14780;48.316;-1.050;2024-02-04T08:03:50;4.22;;;2.10;;
18568;SDS011;14780;48.316;-1.050;2024-02-04T08:06:35;4.03;;;2.20;;
18568;SDS011;14780;48.316;-1.050;2024-02-04T08:09:21;3.40;;;2.30;;
18568;SDS011;14780;48.316;-1.050;2024-02-04T08:12:05;5.00;;;2.40;;
18568;SDS011;14780;48.316;-1.050;2024-02-04T08:14:51;5.93;;;2.20;;
18568;SDS011;14780;48.316;-1.050;2024-02-04T08:17:36;3.78;;;2.30;;
18568;SDS011;14780;48.316;-1.050;2024-02-04T08:20:20;4.53;;;2.20;;
18568;SDS011;14780;48.316;-1.050;2024-02-04T08:23:05;3.88;;;2.13;;
18568;SDS011;14780;48.316;-1.050;2024-02-04T08:28:28;4.63;;;2.30;;
18568;SDS011;14780;48.316;-1.050;2024-02-04T08:31:13;3.67;;;2.05;;
18568;SDS011;14780;48.316;-1.050;2024-02-04T08:33:57;5.10;;;2.08;;
18568;SDS011;14780;48.316;-1.050;2024-02-04T08:36:42;5.10;;;2.10;;
18568;SDS011;14780;48.316;-1.050;2024-02-04T08:39:27;4.82;;;2.50;;
18568;SDS011;14780;48.316;-1.050;2024-02-04T08:42:14;4.72;;;2.30;;
18568;SDS011;14780;48.316;-1.050;2024-02-04T08:44:59;5.00;;;2.22;;
18568;SDS011;14780;48.316;-1.050;2024-02-04T08:47:44;4.43;;;2.40;;
18568;SDS011;14780;48.316;-1.050;2024-02-04T08:50:29;3.55;;;2.20;;
18568;SDS011;14780;48.316;-1.050;2024-02-04T08:53:14;5.03;;;2.53;;
18568;SDS011;14780;48.316;-1.050;2024-02-04T08:55:59;6.10;;;2.40;;
18568;SDS011;14780;48.316;-1.050;2024-02-04T08:58:44;4.47;;;2.50;;
18568;SDS011;14780;48.316;-1.050;2024-02-04T09:01:29;7.88;;;2.67;;
18568;SDS011;14780;48.316;-1.050;2024-02-04T09:04:14;6.17;;;2.40;;
18568;SDS011;14780;48.316;-1.050;2024-02-04T09:06:58;7.07;;;2.70;;
18568;SDS011;14780;48.316;-1.050;2024-02-04T09:09:43;5.07;;;2.20;;
18568;SDS011;14780;48.316;-1.050;2024-02-04T09:12:28;4.63;;;2.47;;
18568;SDS011;14780;48.316;-1.050;2024-02-04T09:15:13;6.60;;;2.50;;
18568;SDS011;14780;48.316;-1.050;2024-02-04T09:17:59;8.00;;;2.50;;
18568;SDS011;14780;48.316;-1.050;2024-02-04T09:20:43;5.63;;;2.65;;
18568;SDS011;14780;48.316;-1.050;2024-02-04T09:23:28;5.13;;;2.40;;
18568;SDS011;14780;48.316;-1.050;2024-02-04T09:26:13;7.00;;;2.83;;
18568;SDS011;14780;48.316;-1.050;2024-02-04T09:28:58;5.80;;;2.80;;
18568;SDS011;14780;48.316;-1.050;2024-02-04T09:31:42;6.33;;;2.93;;
18568;SDS011;14780;48.316;-1.050;2024-02-04T09:34:27;6.88;;;3.03;;
18568;SDS011;14780;48.316;-1.050;2024-02-04T09:37:12;7.80;;;2.50;;
18568;SDS011;14780;48.316;-1.050;2024-02-04T09:39:56;7.10;;;2.60;;
18568;SDS011;14780;48.316;-1.050;2024-02-04T09:42:41;6.75;;;2.72;;
18568;SDS011;14780;48.316;-1.050;2024-02-04T09:45:25;8.30;;;2.80;;
18568;SDS011;14780;48.316;-1.050;2024-02-04T09:48:10;9.32;;;2.53;;
18568;SDS011;14780;48.316;-1.050;2024-02-04T09:50:57;5.82;;;2.40;;
18568;SDS011;14780;48.316;-1.050;2024-02-04T09:53:45;5.90;;;2.53;;
18568;SDS011;14780;48.316;-1.050;2024-02-04T09:56:35;10.13;;;2.30;;
18568;SDS011;14780;48.316;-1.050;2024-02-04T09:59:22;6.85;;;2.58;;
18568;SDS011;14780;48.316;-1.050;2024-02-04T10:02:07;9.82;;;2.80;;
18568;SDS011;14780;48.316;-1.050;2024-02-04T10:04:52;6.72;;;2.45;;
18568;SDS011;14780;48.316;-1.050;2024-02-04T10:07:36;7.38;;;2.45;;
18568;SDS011;14780;48.316;-1.050;2024-02-04T10:10:22;10.18;;;3.15;;
18568;SDS011;14780;48.316;-1.050;2024-02-04T10:13:10;10.57;;;3.20;;
18568;SDS011;14780;48.316;-1.050;2024-02-04T10:15:55;7.40;;;3.40;;
18568;SDS011;14780;48.316;-1.050;2024-02-04T10:18:47;12.43;;;3.90;;
18568;SDS011;14780;48.316;-1.050;2024-02-04T10:21:33;11.52;;;3.92;;
18568;SDS011;14780;48.316;-1.050;2024-02-04T10:24:17;11.00;;;4.05;;
18568;SDS011;14780;48.316;-1.050;2024-02-04T10:27:02;10.93;;;4.20;;
18568;SDS011;14780;48.316;-1.050;2024-02-04T10:29:47;10.57;;;4.03;;
18568;SDS011;14780;48.316;-1.050;2024-02-04T10:32:32;9.45;;;3.88;;
18568;SDS011;14780;48.316;-1.050;2024-02-04T10:35:20;12.45;;;4.20;;
18568;SDS011;14780;48.316;-1.050;2024-02-04T10:38:06;18.85;;;4.57;;
18568;SDS011;14780;48.316;-1.050;2024-02-04T10:40:53;14.35;;;4.10;;
18568;SDS011;14780;48.316;-1.050;2024-02-04T10:43:39;30.53;;;6.53;;
18568;SDS011;14780;48.316;-1.050;2024-02-04T10:46:28;19.05;;;4.97;;
18568;SDS011;14780;48.316;-1.050;2024-02-04T10:49:15;20.63;;;4.85;;
18568;SDS011;14780;48.316;-1.050;2024-02-04T10:52:03;16.88;;;4.90;;
18568;SDS011;14780;48.316;-1.050;2024-02-04T10:54:51;15.93;;;4.70;;
18568;SDS011;14780;48.316;-1.050;2024-02-04T10:57:37;13.35;;;4.63;;
18568;SDS011;14780;48.316;-1.050;2024-02-04T11:00:23;15.68;;;4.55;;
18568;SDS011;14780;48.316;-1.050;2024-02-04T11:03:10;13.93;;;4.60;;
18568;SDS011;14780;48.316;-1.050;2024-02-04T11:05:56;10.25;;;4.88;;
18568;SDS011;14780;48.316;-1.050;2024-02-04T11:08:42;11.00;;;4.57;;
18568;SDS011;14780;48.316;-1.050;2024-02-04T11:11:27;13.73;;;4.93;;
18568;SDS011;14780;48.316;-1.050;2024-02-04T11:14:13;17.98;;;5.47;;
18568;SDS011;14780;48.316;-1.050;2024-02-04T11:23:40;13.10;;;4.70;;
18568;SDS011;14780;48.316;-1.050;2024-02-04T11:26:35;14.60;;;4.68;;
18568;SDS011;14780;48.316;-1.050;2024-02-04T11:29:24;11.10;;;4.22;;
18568;SDS011;14780;48.316;-1.050;2024-02-04T11:32:10;12.63;;;4.10;;
18568;SDS011;14780;48.316;-1.050;2024-02-04T11:34:56;13.75;;;4.30;;
18568;SDS011;14780;48.316;-1.050;2024-02-04T11:37:44;13.75;;;4.13;;
18568;SDS011;14780;48.316;-1.050;2024-02-04T11:40:30;10.85;;;5.30;;
18568;SDS011;14780;48.316;-1.050;2024-02-04T11:43:22;14.77;;;6.18;;
18568;SDS011;14780;48.316;-1.050;2024-02-04T11:46:15;13.50;;;5.78;;
18568;SDS011;14780;48.316;-1.050;2024-02-04T11:49:02;20.65;;;6.65;;
18568;SDS011;14780;48.316;-1.050;2024-02-04T11:51:47;21.05;;;7.82;;
18568;SDS011;14780;48.316;-1.050;2024-02-04T11:54:35;23.00;;;9.10;;
18568;SDS011;14780;48.316;-1.050;2024-02-04T11:57:19;21.08;;;8.70;;
18568;SDS011;14780;48.316;-1.050;2024-02-04T12:00:07;17.80;;;7.70;;
18568;SDS011;14780;48.316;-1.050;2024-02-04T12:03:28;17.23;;;7.47;;
18568;SDS011;14780;48.316;-1.050;2024-02-04T12:06:12;16.52;;;7.50;;
18568;SDS011;14780;48.316;-1.050;2024-02-04T12:09:00;17.58;;;6.93;;
18568;SDS011;14780;48.316;-1.050;2024-02-04T12:11:47;14.30;;;6.38;;
18568;SDS011;14780;48.316;-1.050;2024-02-04T12:14:34;13.70;;;6.20;;
18568;SDS011;14780;48.316;-1.050;2024-02-04T12:17:19;16.13;;;5.88;;
18568;SDS011;14780;48.316;-1.050;2024-02-04T12:20:05;12.32;;;5.90;;
18568;SDS011;14780;48.316;-1.050;2024-02-04T12:22:50;13.43;;;5.65;;
18568;SDS011;14780;48.316;-1.050;2024-02-04T12:25:35;13.13;;;5.93;;
18568;SDS011;14780;48.316;-1.050;2024-02-04T12:28:20;12.73;;;5.47;;
18568;SDS011;14780;48.316;-1.050;2024-02-04T12:31:05;13.05;;;5.57;;
18568;SDS011;14780;48.316;-1.050;2024-02-04T12:34:00;17.63;;;6.18;;
18568;SDS011;14780;48.316;-1.050;2024-02-04T12:36:45;13.82;;;5.60;;
18568;SDS011;14780;48.316;-1.050;2024-02-04T12:39:30;16.35;;;5.75;;
18568;SDS011;14780;48.316;-1.050;2024-02-04T12:42:16;11.32;;;5.30;;
18568;SDS011;14780;48.316;-1.050;2024-02-04T12:45:03;18.42;;;5.50;;
18568;SDS011;14780;48.316;-1.050;2024-02-04T12:47:52;16.38;;;5.57;;
18568;SDS011;14780;48.316;-1.050;2024-02-04T12:50:39;12.63;;;5.35;;
18568;SDS011;14780;48.316;-1.050;2024-02-04T12:53:23;15.98;;;5.53;;
18568;SDS011;14780;48.316;-1.050;2024-02-04T12:56:08;12.50;;;4.95;;
18568;SDS011;14780;48.316;-1.050;2024-02-04T12:58:52;14.65;;;5.70;;
18568;SDS011;14780;48.316;-1.050;2024-02-04T13:01:40;11.43;;;4.72;;
18568;SDS011;14780;48.316;-1.050;2024-02-04T13:04:25;12.43;;;4.70;;
18568;SDS011;14780;48.316;-1.050;2024-02-04T13:07:11;12.85;;;4.53;;
18568;SDS011;14780;48.316;-1.050;2024-02-04T13:09:58;12.75;;;4.72;;
18568;SDS011;14780;48.316;-1.050;2024-02-04T13:12:43;10.98;;;4.80;;
18568;SDS011;14780;48.316;-1.050;2024-02-04T13:15:29;9.88;;;4.30;;
18568;SDS011;14780;48.316;-1.050;2024-02-04T13:18:15;10.35;;;4.20;;
18568;SDS011;14780;48.316;-1.050;2024-02-04T13:20:59;12.30;;;4.75;;
18568;SDS011;14780;48.316;-1.050;2024-02-04T13:23:44;9.38;;;4.32;;
18568;SDS011;14780;48.316;-1.050;2024-02-04T13:26:29;9.70;;;4.32;;
18568;SDS011;14780;48.316;-1.050;2024-02-04T13:29:14;9.85;;;4.30;;
18568;SDS011;14780;48.316;-1.050;2024-02-04T13:31:59;8.75;;;4.28;;
18568;SDS011;14780;48.316;-1.050;2024-02-04T13:34:43;10.15;;;4.40;;
18568;SDS011;14780;48.316;-1.050;2024-02-04T13:37:28;10.40;;;4.40;;
18568;SDS011;14780;48.316;-1.050;2024-02-04T13:40:16;10.52;;;3.88;;
18568;SDS011;14780;48.316;-1.050;2024-02-04T13:43:02;12.50;;;4.15;;
18568;SDS011;14780;48.316;-1.050;2024-02-04T13:45:47;11.02;;;4.00;;
18568;SDS011;14780;48.316;-1.050;2024-02-04T13:48:32;11.35;;;4.10;;
18568;SDS011;14780;48.316;-1.050;2024-02-04T13:51:16;9.05;;;4.07;;
18568;SDS011;14780;48.316;-1.050;2024-02-04T13:54:01;8.70;;;3.60;;
18568;SDS011;14780;48.316;-1.050;2024-02-04T13:56:46;11.90;;;4.30;;
18568;SDS011;14780;48.316;-1.050;2024-02-04T13:59:31;8.85;;;3.95;;
18568;SDS011;14780;48.316;-1.050;2024-02-04T14:02:16;9.30;;;4.43;;
18568;SDS011;14780;48.316;-1.050;2024-02-04T14:05:00;8.80;;;4.20;;
18568;SDS011;14780;48.316;-1.050;2024-02-04T14:07:46;11.65;;;4.15;;
18568;SDS011;14780;48.316;-1.050;2024-02-04T14:10:30;10.97;;;4.40;;
18568;SDS011;14780;48.316;-1.050;2024-02-04T14:13:15;13.50;;;4.43;;
18568;SDS011;14780;48.316;-1.050;2024-02-04T14:15:59;15.32;;;4.35;;
18568;SDS011;14780;48.316;-1.050;2024-02-04T14:18:44;8.05;;;3.88;;
18568;SDS011;14780;48.316;-1.050;2024-02-04T14:21:30;10.20;;;3.92;;
18568;SDS011;14780;48.316;-1.050;2024-02-04T14:24:15;13.80;;;4.18;;
18568;SDS011;14780;48.316;-1.050;2024-02-04T14:27:00;11.93;;;4.20;;
18568;SDS011;14780;48.316;-1.050;2024-02-04T14:29:45;9.98;;;3.80;;
18568;SDS011;14780;48.316;-1.050;2024-02-04T14:32:30;10.68;;;4.15;;
18568;SDS011;14780;48.316;-1.050;2024-02-04T14:35:15;9.67;;;3.80;;
18568;SDS011;14780;48.316;-1.050;2024-02-04T14:38:00;9.82;;;3.95;;
18568;SDS011;14780;48.316;-1.050;2024-02-04T14:40:45;7.88;;;3.80;;
18568;SDS011;14780;48.316;-1.050;2024-02-04T14:43:30;10.60;;;3.65;;
18568;SDS011;14780;48.316;-1.050;2024-02-04T14:46:15;9.15;;;3.67;;
18568;SDS011;14780;48.316;-1.050;2024-02-04T14:48:59;11.60;;;4.00;;
18568;SDS011;14780;48.316;-1.050;2024-02-04T14:51:44;10.23;;;4.20;;
18568;SDS011;14780;48.316;-1.050;2024-02-04T14:54:28;10.43;;;4.32;;
18568;SDS011;14780;48.316;-1.050;2024-02-04T14:57:13;9.35;;;4.10;;
18568;SDS011;14780;48.316;-1.050;2024-02-04T14:59:58;9.00;;;3.80;;
18568;SDS011;14780;48.316;-1.050;2024-02-04T15:02:42;10.45;;;4.13;;
18568;SDS011;14780;48.316;-1.050;2024-02-04T15:05:27;9.40;;;4.30;;
18568;SDS011;14780;48.316;-1.050;2024-02-04T15:08:11;9.82;;;4.00;;
18568;SDS011;14780;48.316;-1.050;2024-02-04T15:10:56;7.03;;;3.80;;
18568;SDS011;14780;48.316;-1.050;2024-02-04T15:13:41;9.77;;;4.18;;
18568;SDS011;14780;48.316;-1.050;2024-02-04T15:16:26;8.57;;;4.10;;
18568;SDS011;14780;48.316;-1.050;2024-02-04T15:19:11;8.70;;;4.00;;
18568;SDS011;14780;48.316;-1.050;2024-02-04T15:21:56;8.90;;;3.67;;
18568;SDS011;14780;48.316;-1.050;2024-02-04T15:24:42;7.45;;;4.00;;
18568;SDS011;14780;48.316;-1.050;2024-02-04T15:27:27;9.00;;;4.53;;
18568;SDS011;14780;48.316;-1.050;2024-02-04T15:30:13;10.57;;;4.15;;
18568;SDS011;14780;48.316;-1.050;2024-02-04T15:32:58;9.30;;;4.28;;
18568;SDS011;14780;48.316;-1.050;2024-02-04T15:35:45;10.68;;;4.28;;
18568;SDS011;14780;48.316;-1.050;2024-02-04T15:38:30;11.77;;;4.15;;
18568;SDS011;14780;48.316;-1.050;2024-02-04T15:41:16;8.38;;;3.97;;
18568;SDS011;14780;48.316;-1.050;2024-02-04T15:44:00;9.13;;;4.20;;
18568;SDS011;14780;48.316;-1.050;2024-02-04T15:46:45;11.63;;;4.20;;
18568;SDS011;14780;48.316;-1.050;2024-02-04T15:49:34;9.35;;;3.92;;
18568;SDS011;14780;48.316;-1.050;2024-02-04T15:52:21;12.63;;;6.60;;
18568;SDS011;14780;48.316;-1.050;2024-02-04T15:55:06;12.25;;;6.00;;
18568;SDS011;14780;48.316;-1.050;2024-02-04T15:57:52;10.48;;;5.80;;
18568;SDS011;14780;48.316;-1.050;2024-02-04T16:00:37;14.07;;;5.50;;
18568;SDS011;14780;48.316;-1.050;2024-02-04T16:03:22;10.30;;;5.43;;
18568;SDS011;14780;48.316;-1.050;2024-02-04T16:06:08;9.90;;;5.80;;
18568;SDS011;14780;48.316;-1.050;2024-02-04T16:08:53;13.60;;;5.38;;
18568;SDS011;14780;48.316;-1.050;2024-02-04T16:14:34;9.93;;;5.13;;
18568;SDS011;14780;48.316;-1.050;2024-02-04T16:17:20;13.55;;;5.40;;
18568;SDS011;14780;48.316;-1.050;2024-02-04T16:20:06;11.95;;;5.13;;
18568;SDS011;14780;48.316;-1.050;2024-02-04T16:22:51;12.57;;;5.30;;
18568;SDS011;14780;48.316;-1.050;2024-02-04T16:25:36;15.88;;;5.32;;
18568;SDS011;14780;48.316;-1.050;2024-02-04T16:28:20;13.45;;;5.55;;
18568;SDS011;14780;48.316;-1.050;2024-02-04T16:31:05;10.68;;;5.10;;
18568;SDS011;14780;48.316;-1.050;2024-02-04T16:33:51;17.45;;;5.50;;
18568;SDS011;14780;48.316;-1.050;2024-02-04T16:36:37;13.47;;;5.47;;